Isola Bianca — ICLD — position and weather

sailwx.info

Track history (hours):
 
Tides and Currents Weather Stations Pressure Air Temp Water Temp Dewpoint Dewpoint Depression Visibility Wind Speed Wind Dir Waves Ship Positions

Isola Bianca

Last reported at 2016-Jul-22 04:27 UTC. Time now 2016-Jul-26 17:57 UTC.
Position N 27°38' W 015°14'.

Length 183 m; draft 11.4 m.

Type: Ship. MMSI: 247245200.

Date/timePositionNaut miles runAvg speedWind from/ knotsBaromVisibWave heightAir tempDewpointWater temp
2016-Jul-22 04:27N 27°38' W 015°14'1314.5
2016-Jul-22 03:33N 27°49' W 015°08'1414.4
2016-Jul-22 02:33N 28°03' W 015°02'1414.4
2016-Jul-22 01:33N 28°16' W 014°56'1514.5
2016-Jul-22 00:33N 28°30' W 014°50'1414.1
2016-Jul-21 23:34N 28°42' W 014°43'1414.0
2016-Jul-21 22:33N 28°55' W 014°37'1514.1
2016-Jul-21 21:30N 29°09' W 014°29'1314.0
2016-Jul-21 20:33N 29°21' W 014°23'1413.6
2016-Jul-21 19:30N 29°34' W 014°17'1313.5
2016-Jul-21 18:33N 29°46' W 014°11'1513.7
2016-Jul-21 17:29N 29°59' W 014°04'1513.8
2016-Jul-21 16:26N 30°13' W 013°57'1813.9
2016-Jul-21 15:07N 30°29' W 013°48'813.4
2016-Jul-21 14:33N 30°36' W 013°45'2013.4
2016-Jul-21 13:04N 30°54' W 013°35'713.1
2016-Jul-21 12:31N 31°00' W 013°32'1313.3
2016-Jul-21 11:33N 31°12' W 013°25'2913.0
2016-Jul-21 09:20N 31°39' W 013°13'1213.1
2016-Jul-21 08:25N 31°50' W 013°07'1213.2
2016-Jul-21 07:33N 32°01' W 013°02'30413.2
2016-Jul-20 08:33N 37°02' W 012°10'1613.0
2016-Jul-20 07:19N 37°18' W 012°07'  
2016-Jul-18 00:32N 48°25' W 006°12'1212.3
2016-Jul-17 23:32N 48°36' W 006°03'1312.8
2016-Jul-17 22:33N 48°46' W 005°53'1312.9
2016-Jul-17 21:33N 48°56' W 005°40'1313.2
2016-Jul-17 20:33N 49°02' W 005°22'1211.9
2016-Jul-17 19:33N 49°09' W 005°07'6 6.1
2016-Jul-17 18:33N 49°12' W 004°59'5011.3
2016-Jul-17 14:07N 49°38' W 003°54'711.8
2016-Jul-17 13:34N 49°42' W 003°45'1312.4
2016-Jul-17 12:28N 49°49' W 003°27'1213.1
2016-Jul-17 11:33N 49°55' W 003°11'1413.5
2016-Jul-17 10:33N 49°58' W 002°51'1313.2
2016-Jul-17 09:33N 50°03' W 002°31'3812.1
2016-Jul-17 06:24N 50°15' W 001°35'2010.7
2016-Jul-17 04:33N 50°20' W 001°04'1312.6
2016-Jul-17 03:30N 50°24' W 000°44'1313.5
2016-Jul-17 02:32N 50°27' W 000°25'1414.0
2016-Jul-17 01:33N 50°30' W 000°04'1414.1
2016-Jul-17 00:34N 50°34' E 000°18'1413.6
2016-Jul-16 23:33N 50°38' E 000°38'1812.5
2016-Jul-16 22:07N 50°49' E 001°01'711.5
2016-Jul-16 21:33N 50°53' E 001°09'1111.1
2016-Jul-16 20:33N 51°01' E 001°21'1211.9
2016-Jul-16 19:33N 51°08' E 001°36'1212.3
2016-Jul-16 18:33N 51°17' E 001°50'1111.2
2016-Jul-16 17:33N 51°24' E 002°03'1211.9
2016-Jul-16 16:33N 51°21' E 002°22'1312.6
2016-Jul-16 15:34N 51°23' E 002°42'1110.9
2016-Jul-16 14:33N 51°24' E 002°59'1211.9
2016-Jul-16 13:33N 51°25' E 003°18'1212.0
2016-Jul-16 12:33N 51°26' E 003°37'1010.2
2016-Jul-16 11:34N 51°21' E 003°51'8 8.2
2016-Jul-16 10:33N 51°26' E 004°02'7 6.8
2016-Jul-16 09:33N 51°24' E 004°12'4 4.3
2016-Jul-16 08:33N 51°21' E 004°17'0 0.2
2016-Jul-16 07:33N 51°21' E 004°18'5 4.5
2016-Jul-16 06:33N 51°17' E 004°21'0 0.2
2016-Jul-16 04:33N 51°16' E 004°21'0 0.0
2016-Jul-16 03:33N 51°16' E 004°21'0 0.0
2016-Jul-16 02:33N 51°16' E 004°21'0 0.0
2016-Jul-16 01:33N 51°16' E 004°21'0 0.0
2016-Jul-16 00:33N 51°16' E 004°21'0 0.0
2016-Jul-15 23:33N 51°16' E 004°21'0 0.0
2016-Jul-15 22:33N 51°16' E 004°21'0 0.0
2016-Jul-15 21:30N 51°16' E 004°21'0 0.0
2016-Jul-15 20:33N 51°16' E 004°21'0 0.0
2016-Jul-15 19:33N 51°16' E 004°21'0 0.0
2016-Jul-15 18:33N 51°16' E 004°21'0 0.0
2016-Jul-15 17:33N 51°16' E 004°21'0 0.0
2016-Jul-15 16:33N 51°16' E 004°21'0 0.0
2016-Jul-15 15:33N 51°16' E 004°21'0 0.0
2016-Jul-15 14:33N 51°16' E 004°21'0 0.0
2016-Jul-15 13:33N 51°16' E 004°21'0 0.0
2016-Jul-15 12:33N 51°16' E 004°21'0 0.0
2016-Jul-15 11:33N 51°16' E 004°21'0 0.0
2016-Jul-15 10:33N 51°16' E 004°21'0 0.0
2016-Jul-15 09:33N 51°16' E 004°21'0 0.0
2016-Jul-15 08:33N 51°16' E 004°21'0 0.0
2016-Jul-15 07:33N 51°16' E 004°21'0 0.0
2016-Jul-15 06:33N 51°16' E 004°21'0 0.0
2016-Jul-15 05:33N 51°16' E 004°21'0 0.0
2016-Jul-15 04:33N 51°16' E 004°21'0 0.0
2016-Jul-15 03:33N 51°16' E 004°21'0 0.0
2016-Jul-15 02:33N 51°16' E 004°21'0 0.0
2016-Jul-15 01:30N 51°16' E 004°21'0 0.0
2016-Jul-15 00:33N 51°16' E 004°21'0 0.0
2016-Jul-14 23:33N 51°16' E 004°21'0 0.0
2016-Jul-14 22:33N 51°16' E 004°21'0 0.0
2016-Jul-14 21:30N 51°16' E 004°21'0 0.0
2016-Jul-14 20:33N 51°16' E 004°21'0 0.0
2016-Jul-14 19:33N 51°16' E 004°21'0 0.0
2016-Jul-14 18:33N 51°16' E 004°21'0 0.0
2016-Jul-14 17:33N 51°16' E 004°21'0 0.0
2016-Jul-14 16:33N 51°16' E 004°21'0 0.0
2016-Jul-14 15:33N 51°16' E 004°21'0 0.0
2016-Jul-14 14:33N 51°16' E 004°21'0 0.0
2016-Jul-14 13:33N 51°16' E 004°21'0 0.0
2016-Jul-14 12:27N 51°16' E 004°21'0 0.0
2016-Jul-14 11:33N 51°16' E 004°21'0 0.0
2016-Jul-14 10:33N 51°16' E 004°21'0 0.0
2016-Jul-14 09:33N 51°16' E 004°21'0 0.0
2016-Jul-14 08:33N 51°16' E 004°21'0 0.0
2016-Jul-14 07:30N 51°16' E 004°21'0 0.0
2016-Jul-14 06:33N 51°16' E 004°21'0 0.0
2016-Jul-14 05:33N 51°16' E 004°21'0 0.0
2016-Jul-14 04:33N 51°16' E 004°21'0 0.0
2016-Jul-14 03:33N 51°16' E 004°21'0 0.0
2016-Jul-14 02:33N 51°16' E 004°21'0 0.0
2016-Jul-14 01:33N 51°16' E 004°21'0 0.0
2016-Jul-14 00:30N 51°16' E 004°21'0 0.0
2016-Jul-13 23:33N 51°16' E 004°21'0 0.0
2016-Jul-13 22:33N 51°16' E 004°21'0 0.0
2016-Jul-13 21:33N 51°16' E 004°21'0 0.0
2016-Jul-13 20:33N 51°16' E 004°21'0 0.0
2016-Jul-13 19:33N 51°16' E 004°21'0 0.0
2016-Jul-13 18:33N 51°16' E 004°21'0 0.0
2016-Jul-13 17:33N 51°16' E 004°21'0 0.0
2016-Jul-13 16:33N 51°16' E 004°21'0 0.0
2016-Jul-13 15:33N 51°16' E 004°21'0 0.0
2016-Jul-13 14:33N 51°16' E 004°21'0 0.0
2016-Jul-13 13:33N 51°16' E 004°21'0 0.0
2016-Jul-13 12:30N 51°16' E 004°21'0 0.0
2016-Jul-13 11:33N 51°16' E 004°21'0 0.0
2016-Jul-13 10:33N 51°16' E 004°21'0 0.0
2016-Jul-13 09:33N 51°16' E 004°21'0 0.0
2016-Jul-13 08:33N 51°16' E 004°21'0 0.0
2016-Jul-13 07:30N 51°16' E 004°21'0 0.0
2016-Jul-13 06:33N 51°16' E 004°21'0 0.0
2016-Jul-13 05:33N 51°16' E 004°21'0 0.0
2016-Jul-13 04:33N 51°16' E 004°21'0 0.0
2016-Jul-13 03:33N 51°16' E 004°21'0 0.0
2016-Jul-13 02:27N 51°16' E 004°21'0 0.0
2016-Jul-13 01:33N 51°16' E 004°21'0 0.0
2016-Jul-13 00:33N 51°16' E 004°21'0 0.0
2016-Jul-12 23:33N 51°16' E 004°21'0 0.0
2016-Jul-12 22:33N 51°16' E 004°21'0 0.0
2016-Jul-12 21:33N 51°16' E 004°21'0 0.0
2016-Jul-12 20:33N 51°16' E 004°21'0 0.0
2016-Jul-12 19:30N 51°16' E 004°21'0 0.0
2016-Jul-12 18:33N 51°16' E 004°21'0 0.0
2016-Jul-12 17:33N 51°16' E 004°21'0 0.0
2016-Jul-12 16:33N 51°16' E 004°21'0 0.0
2016-Jul-12 15:30N 51°16' E 004°21'0 0.0
2016-Jul-12 14:33N 51°16' E 004°21'0 0.0
2016-Jul-12 13:33N 51°16' E 004°21'0 0.0
2016-Jul-12 12:33N 51°16' E 004°21'0 0.0
2016-Jul-12 11:33N 51°16' E 004°21'0 0.0
2016-Jul-12 10:33N 51°16' E 004°21'0 0.0
2016-Jul-12 09:33N 51°16' E 004°21'0 0.0
2016-Jul-12 08:33N 51°16' E 004°21'0 0.0
2016-Jul-12 07:33N 51°16' E 004°21'0 0.0
2016-Jul-12 06:33N 51°16' E 004°21'0 0.0
2016-Jul-12 05:33N 51°16' E 004°21'0 0.0
2016-Jul-12 04:33N 51°16' E 004°21'  
Track history (hours):
 
Tides and Currents Weather Stations Pressure Air Temp Water Temp Dewpoint Dewpoint Depression Visibility Wind Speed Wind Dir Waves Ship Positions

Isola Bianca

Last reported at 2016-Jul-22 04:27 UTC. Time now 2016-Jul-26 17:57 UTC.
Position N 27°38' W 015°14'.

Length 183 m; draft 11.4 m.

Type: Ship. MMSI: 247245200.

Date/timePositionNaut miles runAvg speedWind from/ knotsBaromVisibWave heightAir tempDewpointWater temp
2016-Jul-22 04:27N 27°38' W 015°14'1314.5
2016-Jul-22 03:33N 27°49' W 015°08'1414.4
2016-Jul-22 02:33N 28°03' W 015°02'1414.4
2016-Jul-22 01:33N 28°16' W 014°56'1514.5
2016-Jul-22 00:33N 28°30' W 014°50'1414.1
2016-Jul-21 23:34N 28°42' W 014°43'1414.0
2016-Jul-21 22:33N 28°55' W 014°37'1514.1
2016-Jul-21 21:30N 29°09' W 014°29'1314.0
2016-Jul-21 20:33N 29°21' W 014°23'1413.6
2016-Jul-21 19:30N 29°34' W 014°17'1313.5
2016-Jul-21 18:33N 29°46' W 014°11'1513.7
2016-Jul-21 17:29N 29°59' W 014°04'1513.8
2016-Jul-21 16:26N 30°13' W 013°57'1813.9
2016-Jul-21 15:07N 30°29' W 013°48'813.4
2016-Jul-21 14:33N 30°36' W 013°45'2013.4
2016-Jul-21 13:04N 30°54' W 013°35'713.1
2016-Jul-21 12:31N 31°00' W 013°32'1313.3
2016-Jul-21 11:33N 31°12' W 013°25'2913.0
2016-Jul-21 09:20N 31°39' W 013°13'1213.1
2016-Jul-21 08:25N 31°50' W 013°07'1213.2
2016-Jul-21 07:33N 32°01' W 013°02'30413.2
2016-Jul-20 08:33N 37°02' W 012°10'1613.0
2016-Jul-20 07:19N 37°18' W 012°07'  
2016-Jul-18 00:32N 48°25' W 006°12'1212.3
2016-Jul-17 23:32N 48°36' W 006°03'1312.8
2016-Jul-17 22:33N 48°46' W 005°53'1312.9
2016-Jul-17 21:33N 48°56' W 005°40'1313.2
2016-Jul-17 20:33N 49°02' W 005°22'1211.9
2016-Jul-17 19:33N 49°09' W 005°07'6 6.1
2016-Jul-17 18:33N 49°12' W 004°59'5011.3
2016-Jul-17 14:07N 49°38' W 003°54'711.8
2016-Jul-17 13:34N 49°42' W 003°45'1312.4
2016-Jul-17 12:28N 49°49' W 003°27'1213.1
2016-Jul-17 11:33N 49°55' W 003°11'1413.5
2016-Jul-17 10:33N 49°58' W 002°51'1313.2
2016-Jul-17 09:33N 50°03' W 002°31'3812.1
2016-Jul-17 06:24N 50°15' W 001°35'2010.7
2016-Jul-17 04:33N 50°20' W 001°04'1312.6
2016-Jul-17 03:30N 50°24' W 000°44'1313.5
2016-Jul-17 02:32N 50°27' W 000°25'1414.0
2016-Jul-17 01:33N 50°30' W 000°04'1414.1
2016-Jul-17 00:34N 50°34' E 000°18'1413.6
2016-Jul-16 23:33N 50°38' E 000°38'1812.5
2016-Jul-16 22:07N 50°49' E 001°01'711.5
2016-Jul-16 21:33N 50°53' E 001°09'1111.1
2016-Jul-16 20:33N 51°01' E 001°21'1211.9
2016-Jul-16 19:33N 51°08' E 001°36'1212.3
2016-Jul-16 18:33N 51°17' E 001°50'1111.2
2016-Jul-16 17:33N 51°24' E 002°03'1211.9
2016-Jul-16 16:33N 51°21' E 002°22'1312.6
2016-Jul-16 15:34N 51°23' E 002°42'1110.9
2016-Jul-16 14:33N 51°24' E 002°59'1211.9
2016-Jul-16 13:33N 51°25' E 003°18'1212.0
2016-Jul-16 12:33N 51°26' E 003°37'1010.2
2016-Jul-16 11:34N 51°21' E 003°51'8 8.2
2016-Jul-16 10:33N 51°26' E 004°02'7 6.8
2016-Jul-16 09:33N 51°24' E 004°12'4 4.3
2016-Jul-16 08:33N 51°21' E 004°17'0 0.2
2016-Jul-16 07:33N 51°21' E 004°18'5 4.5
2016-Jul-16 06:33N 51°17' E 004°21'0 0.2
2016-Jul-16 04:33N 51°16' E 004°21'0 0.0
2016-Jul-16 03:33N 51°16' E 004°21'0 0.0
2016-Jul-16 02:33N 51°16' E 004°21'0 0.0
2016-Jul-16 01:33N 51°16' E 004°21'0 0.0
2016-Jul-16 00:33N 51°16' E 004°21'0 0.0
2016-Jul-15 23:33N 51°16' E 004°21'0 0.0
2016-Jul-15 22:33N 51°16' E 004°21'0 0.0
2016-Jul-15 21:30N 51°16' E 004°21'0 0.0
2016-Jul-15 20:33N 51°16' E 004°21'0 0.0
2016-Jul-15 19:33N 51°16' E 004°21'0 0.0
2016-Jul-15 18:33N 51°16' E 004°21'0 0.0
2016-Jul-15 17:33N 51°16' E 004°21'0 0.0
2016-Jul-15 16:33N 51°16' E 004°21'0 0.0
2016-Jul-15 15:33N 51°16' E 004°21'0 0.0
2016-Jul-15 14:33N 51°16' E 004°21'0 0.0
2016-Jul-15 13:33N 51°16' E 004°21'0 0.0
2016-Jul-15 12:33N 51°16' E 004°21'0 0.0
2016-Jul-15 11:33N 51°16' E 004°21'0 0.0
2016-Jul-15 10:33N 51°16' E 004°21'0 0.0
2016-Jul-15 09:33N 51°16' E 004°21'0 0.0
2016-Jul-15 08:33N 51°16' E 004°21'0 0.0
2016-Jul-15 07:33N 51°16' E 004°21'0 0.0
2016-Jul-15 06:33N 51°16' E 004°21'0 0.0
2016-Jul-15 05:33N 51°16' E 004°21'0 0.0
2016-Jul-15 04:33N 51°16' E 004°21'0 0.0
2016-Jul-15 03:33N 51°16' E 004°21'0 0.0
2016-Jul-15 02:33N 51°16' E 004°21'0 0.0
2016-Jul-15 01:30N 51°16' E 004°21'0 0.0
2016-Jul-15 00:33N 51°16' E 004°21'0 0.0
2016-Jul-14 23:33N 51°16' E 004°21'0 0.0
2016-Jul-14 22:33N 51°16' E 004°21'0 0.0
2016-Jul-14 21:30N 51°16' E 004°21'0 0.0
2016-Jul-14 20:33N 51°16' E 004°21'0 0.0
2016-Jul-14 19:33N 51°16' E 004°21'0 0.0
2016-Jul-14 18:33N 51°16' E 004°21'0 0.0
2016-Jul-14 17:33N 51°16' E 004°21'0 0.0
2016-Jul-14 16:33N 51°16' E 004°21'0 0.0
2016-Jul-14 15:33N 51°16' E 004°21'0 0.0
2016-Jul-14 14:33N 51°16' E 004°21'0 0.0
2016-Jul-14 13:33N 51°16' E 004°21'0 0.0
2016-Jul-14 12:27N 51°16' E 004°21'0 0.0
2016-Jul-14 11:33N 51°16' E 004°21'0 0.0
2016-Jul-14 10:33N 51°16' E 004°21'0 0.0
2016-Jul-14 09:33N 51°16' E 004°21'0 0.0
2016-Jul-14 08:33N 51°16' E 004°21'0 0.0
2016-Jul-14 07:30N 51°16' E 004°21'0 0.0
2016-Jul-14 06:33N 51°16' E 004°21'0 0.0
2016-Jul-14 05:33N 51°16' E 004°21'0 0.0
2016-Jul-14 04:33N 51°16' E 004°21'0 0.0
2016-Jul-14 03:33N 51°16' E 004°21'0 0.0
2016-Jul-14 02:33N 51°16' E 004°21'0 0.0
2016-Jul-14 01:33N 51°16' E 004°21'0 0.0
2016-Jul-14 00:30N 51°16' E 004°21'0 0.0
2016-Jul-13 23:33N 51°16' E 004°21'0 0.0
2016-Jul-13 22:33N 51°16' E 004°21'0 0.0
2016-Jul-13 21:33N 51°16' E 004°21'0 0.0
2016-Jul-13 20:33N 51°16' E 004°21'0 0.0
2016-Jul-13 19:33N 51°16' E 004°21'0 0.0
2016-Jul-13 18:33N 51°16' E 004°21'0 0.0
2016-Jul-13 17:33N 51°16' E 004°21'0 0.0
2016-Jul-13 16:33N 51°16' E 004°21'0 0.0
2016-Jul-13 15:33N 51°16' E 004°21'0 0.0
2016-Jul-13 14:33N 51°16' E 004°21'0 0.0
2016-Jul-13 13:33N 51°16' E 004°21'0 0.0
2016-Jul-13 12:30N 51°16' E 004°21'0 0.0
2016-Jul-13 11:33N 51°16' E 004°21'0 0.0
2016-Jul-13 10:33N 51°16' E 004°21'0 0.0
2016-Jul-13 09:33N 51°16' E 004°21'0 0.0
2016-Jul-13 08:33N 51°16' E 004°21'0 0.0
2016-Jul-13 07:30N 51°16' E 004°21'0 0.0
2016-Jul-13 06:33N 51°16' E 004°21'0 0.0
2016-Jul-13 05:33N 51°16' E 004°21'0 0.0
2016-Jul-13 04:33N 51°16' E 004°21'0 0.0
2016-Jul-13 03:33N 51°16' E 004°21'0 0.0
2016-Jul-13 02:27N 51°16' E 004°21'0 0.0
2016-Jul-13 01:33N 51°16' E 004°21'0 0.0
2016-Jul-13 00:33N 51°16' E 004°21'0 0.0
2016-Jul-12 23:33N 51°16' E 004°21'0 0.0
2016-Jul-12 22:33N 51°16' E 004°21'0 0.0
2016-Jul-12 21:33N 51°16' E 004°21'0 0.0
2016-Jul-12 20:33N 51°16' E 004°21'0 0.0
2016-Jul-12 19:30N 51°16' E 004°21'0 0.0
2016-Jul-12 18:33N 51°16' E 004°21'0 0.0
2016-Jul-12 17:33N 51°16' E 004°21'0 0.0
2016-Jul-12 16:33N 51°16' E 004°21'0 0.0
2016-Jul-12 15:30N 51°16' E 004°21'0 0.0
2016-Jul-12 14:33N 51°16' E 004°21'0 0.0
2016-Jul-12 13:33N 51°16' E 004°21'0 0.0
2016-Jul-12 12:33N 51°16' E 004°21'0 0.0
2016-Jul-12 11:33N 51°16' E 004°21'0 0.0
2016-Jul-12 10:33N 51°16' E 004°21'0 0.0
2016-Jul-12 09:33N 51°16' E 004°21'0 0.0
2016-Jul-12 08:33N 51°16' E 004°21'0 0.0
2016-Jul-12 07:33N 51°16' E 004°21'0 0.0
2016-Jul-12 06:33N 51°16' E 004°21'0 0.0
2016-Jul-12 05:33N 51°16' E 004°21'0 0.0
2016-Jul-12 04:33N 51°16' E 004°21'  

Dump ship's entire track history